<?xml version="1.0" encoding="UTF-8" standalone="no" ?>
<gpx xmlns="http://www.topografix.com/GPX/1/1" xmlns:xsi="http://www.w3.org/2001/XMLSchema-instance" xsi:schemaLocation="http://www.topografix.com/GPX/1/1 http://www.topografix.com/GPX/1/1/gpx.xsd" version="1.1" creator="VisuGPX - https://www.visugpx.com">
  <metadata>
    <name>Kerlouan_BrignoganNeizVran_22.3km</name>
    <desc><![CDATA[gnerando idor:7368740]]></desc>
  </metadata>
  <trk>
    <name><![CDATA[Kerlouan_BrignoganNeizVran_22.3km-7368740]]></name>
    <extensions>
      <line xmlns="http://www.topografix.com/GPX/gpx_style/0/2">
        <color>0000FF</color>
        <width>4</width>
      </line>
    </extensions>
    <trkseg>
      <trkpt lat="48.67224" lon="-4.32866">
        <ele>5</ele>
        <time>2023-11-02T13:29:41Z</time>
      </trkpt>
      <trkpt lat="48.67221" lon="-4.32839">
        <ele>6</ele>
        <time>2023-11-02T13:30:05Z</time>
      </trkpt>
      <trkpt lat="48.67203" lon="-4.32827">
        <ele>5</ele>
        <time>2023-11-02T13:30:31Z</time>
      </trkpt>
      <trkpt lat="48.67219" lon="-4.3284">
        <ele>6</ele>
        <time>2023-11-02T13:30:56Z</time>
      </trkpt>
      <trkpt lat="48.6721" lon="-4.32864">
        <ele>5</ele>
        <time>2023-11-02T13:31:20Z</time>
      </trkpt>
      <trkpt lat="48.67222" lon="-4.32842">
        <ele>6</ele>
        <time>2023-11-02T13:31:45Z</time>
      </trkpt>
      <trkpt lat="48.67223" lon="-4.32815">
        <ele>5</ele>
        <time>2023-11-02T13:32:09Z</time>
      </trkpt>
      <trkpt lat="48.67229" lon="-4.32789">
        <ele>4</ele>
        <time>2023-11-02T13:32:33Z</time>
      </trkpt>
      <trkpt lat="48.67248" lon="-4.32787">
        <ele>4</ele>
        <time>2023-11-02T13:32:59Z</time>
      </trkpt>
      <trkpt lat="48.67266" lon="-4.32798">
        <ele>5</ele>
        <time>2023-11-02T13:33:24Z</time>
      </trkpt>
      <trkpt lat="48.67285" lon="-4.32801">
        <ele>5</ele>
        <time>2023-11-02T13:33:50Z</time>
      </trkpt>
      <trkpt lat="48.67319" lon="-4.32774">
        <ele>4</ele>
        <time>2023-11-02T13:34:41Z</time>
      </trkpt>
      <trkpt lat="48.67374" lon="-4.32701">
        <ele>3</ele>
        <time>2023-11-02T13:36:19Z</time>
      </trkpt>
      <trkpt lat="48.67386" lon="-4.3268">
        <ele>3</ele>
        <time>2023-11-02T13:36:43Z</time>
      </trkpt>
      <trkpt lat="48.67404" lon="-4.32627">
        <ele>4</ele>
        <time>2023-11-02T13:37:36Z</time>
      </trkpt>
      <trkpt lat="48.67425" lon="-4.32579">
        <ele>4</ele>
        <time>2023-11-02T13:38:27Z</time>
      </trkpt>
      <trkpt lat="48.67432" lon="-4.32553">
        <ele>3</ele>
        <time>2023-11-02T13:38:51Z</time>
      </trkpt>
      <trkpt lat="48.67468" lon="-4.32531">
        <ele>2</ele>
        <time>2023-11-02T13:39:43Z</time>
      </trkpt>
      <trkpt lat="48.67486" lon="-4.32523">
        <ele>2</ele>
        <time>2023-11-02T13:40:08Z</time>
      </trkpt>
      <trkpt lat="48.67471" lon="-4.32538">
        <ele>2</ele>
        <time>2023-11-02T13:40:32Z</time>
      </trkpt>
      <trkpt lat="48.67457" lon="-4.32559">
        <ele>3</ele>
        <time>2023-11-02T13:40:58Z</time>
      </trkpt>
      <trkpt lat="48.67439" lon="-4.32608">
        <ele>3</ele>
        <time>2023-11-02T13:41:48Z</time>
      </trkpt>
      <trkpt lat="48.67435" lon="-4.32665">
        <ele>3</ele>
        <time>2023-11-02T13:42:38Z</time>
      </trkpt>
      <trkpt lat="48.67421" lon="-4.32718">
        <ele>4</ele>
        <time>2023-11-02T13:43:29Z</time>
      </trkpt>
      <trkpt lat="48.67437" lon="-4.32798">
        <ele>5</ele>
        <time>2023-11-02T13:44:42Z</time>
      </trkpt>
      <trkpt lat="48.67467" lon="-4.32869">
        <ele>4</ele>
        <time>2023-11-02T13:45:57Z</time>
      </trkpt>
      <trkpt lat="48.67477" lon="-4.32921">
        <ele>4</ele>
        <time>2023-11-02T13:46:44Z</time>
      </trkpt>
      <trkpt lat="48.67502" lon="-4.32999">
        <ele>4</ele>
        <time>2023-11-02T13:48:01Z</time>
      </trkpt>
      <trkpt lat="48.67513" lon="-4.33021">
        <ele>4</ele>
        <time>2023-11-02T13:48:25Z</time>
      </trkpt>
      <trkpt lat="48.6752" lon="-4.33048">
        <ele>4</ele>
        <time>2023-11-02T13:48:51Z</time>
      </trkpt>
      <trkpt lat="48.67534" lon="-4.33065">
        <ele>4</ele>
        <time>2023-11-02T13:49:15Z</time>
      </trkpt>
      <trkpt lat="48.67552" lon="-4.33079">
        <ele>4</ele>
        <time>2023-11-02T13:49:42Z</time>
      </trkpt>
      <trkpt lat="48.6757" lon="-4.33086">
        <ele>4</ele>
        <time>2023-11-02T13:50:06Z</time>
      </trkpt>
      <trkpt lat="48.67588" lon="-4.33085">
        <ele>4</ele>
        <time>2023-11-02T13:50:30Z</time>
      </trkpt>
      <trkpt lat="48.67624" lon="-4.33068">
        <ele>6</ele>
        <time>2023-11-02T13:51:21Z</time>
      </trkpt>
      <trkpt lat="48.67643" lon="-4.33063">
        <ele>6</ele>
        <time>2023-11-02T13:51:46Z</time>
      </trkpt>
      <trkpt lat="48.67679" lon="-4.33048">
        <ele>6</ele>
        <time>2023-11-02T13:52:36Z</time>
      </trkpt>
      <trkpt lat="48.67698" lon="-4.33094">
        <ele>6</ele>
        <time>2023-11-02T13:53:24Z</time>
      </trkpt>
      <trkpt lat="48.67698" lon="-4.33122">
        <ele>5</ele>
        <time>2023-11-02T13:53:49Z</time>
      </trkpt>
      <trkpt lat="48.67663" lon="-4.33143">
        <ele>7</ele>
        <time>2023-11-02T13:54:39Z</time>
      </trkpt>
      <trkpt lat="48.67647" lon="-4.33158">
        <ele>6</ele>
        <time>2023-11-02T13:55:04Z</time>
      </trkpt>
      <trkpt lat="48.67629" lon="-4.33207">
        <ele>6</ele>
        <time>2023-11-02T13:55:53Z</time>
      </trkpt>
      <trkpt lat="48.67617" lon="-4.3323">
        <ele>6</ele>
        <time>2023-11-02T13:56:19Z</time>
      </trkpt>
      <trkpt lat="48.6762" lon="-4.33258">
        <ele>6</ele>
        <time>2023-11-02T13:56:44Z</time>
      </trkpt>
      <trkpt lat="48.67615" lon="-4.33286">
        <ele>6</ele>
        <time>2023-11-02T13:57:10Z</time>
      </trkpt>
      <trkpt lat="48.67608" lon="-4.33313">
        <ele>6</ele>
        <time>2023-11-02T13:57:35Z</time>
      </trkpt>
      <trkpt lat="48.67572" lon="-4.33413">
        <ele>4</ele>
        <time>2023-11-02T13:59:16Z</time>
      </trkpt>
      <trkpt lat="48.6756" lon="-4.33435">
        <ele>4</ele>
        <time>2023-11-02T13:59:41Z</time>
      </trkpt>
      <trkpt lat="48.6755" lon="-4.3349">
        <ele>4</ele>
        <time>2023-11-02T14:00:31Z</time>
      </trkpt>
      <trkpt lat="48.67553" lon="-4.33517">
        <ele>4</ele>
        <time>2023-11-02T14:00:55Z</time>
      </trkpt>
      <trkpt lat="48.67571" lon="-4.33568">
        <ele>4</ele>
        <time>2023-11-02T14:01:46Z</time>
      </trkpt>
      <trkpt lat="48.67577" lon="-4.33625">
        <ele>5</ele>
        <time>2023-11-02T14:02:37Z</time>
      </trkpt>
      <trkpt lat="48.67577" lon="-4.33653">
        <ele>6</ele>
        <time>2023-11-02T14:03:02Z</time>
      </trkpt>
      <trkpt lat="48.67582" lon="-4.3368">
        <ele>6</ele>
        <time>2023-11-02T14:03:27Z</time>
      </trkpt>
      <trkpt lat="48.67601" lon="-4.3373">
        <ele>6</ele>
        <time>2023-11-02T14:04:17Z</time>
      </trkpt>
      <trkpt lat="48.67626" lon="-4.33772">
        <ele>5</ele>
        <time>2023-11-02T14:05:07Z</time>
      </trkpt>
      <trkpt lat="48.67635" lon="-4.33798">
        <ele>5</ele>
        <time>2023-11-02T14:05:33Z</time>
      </trkpt>
      <trkpt lat="48.67663" lon="-4.33835">
        <ele>5</ele>
        <time>2023-11-02T14:06:23Z</time>
      </trkpt>
      <trkpt lat="48.67679" lon="-4.3385">
        <ele>5</ele>
        <time>2023-11-02T14:06:48Z</time>
      </trkpt>
      <trkpt lat="48.67688" lon="-4.33875">
        <ele>4</ele>
        <time>2023-11-02T14:07:13Z</time>
      </trkpt>
      <trkpt lat="48.67688" lon="-4.33903">
        <ele>5</ele>
        <time>2023-11-02T14:07:38Z</time>
      </trkpt>
      <trkpt lat="48.67692" lon="-4.3393">
        <ele>5</ele>
        <time>2023-11-02T14:08:02Z</time>
      </trkpt>
      <trkpt lat="48.6769" lon="-4.33958">
        <ele>5</ele>
        <time>2023-11-02T14:08:27Z</time>
      </trkpt>
      <trkpt lat="48.67697" lon="-4.34013">
        <ele>4</ele>
        <time>2023-11-02T14:09:16Z</time>
      </trkpt>
      <trkpt lat="48.67702" lon="-4.34098">
        <ele>3</ele>
        <time>2023-11-02T14:10:31Z</time>
      </trkpt>
      <trkpt lat="48.67696" lon="-4.34125">
        <ele>4</ele>
        <time>2023-11-02T14:10:56Z</time>
      </trkpt>
      <trkpt lat="48.67685" lon="-4.34148">
        <ele>4</ele>
        <time>2023-11-02T14:11:21Z</time>
      </trkpt>
      <trkpt lat="48.67678" lon="-4.34174">
        <ele>4</ele>
        <time>2023-11-02T14:11:46Z</time>
      </trkpt>
      <trkpt lat="48.6767" lon="-4.34228">
        <ele>4</ele>
        <time>2023-11-02T14:12:35Z</time>
      </trkpt>
      <trkpt lat="48.67667" lon="-4.34284">
        <ele>4</ele>
        <time>2023-11-02T14:13:24Z</time>
      </trkpt>
      <trkpt lat="48.67668" lon="-4.34311">
        <ele>4</ele>
        <time>2023-11-02T14:13:48Z</time>
      </trkpt>
      <trkpt lat="48.67674" lon="-4.34366">
        <ele>4</ele>
        <time>2023-11-02T14:14:37Z</time>
      </trkpt>
      <trkpt lat="48.67681" lon="-4.34392">
        <ele>4</ele>
        <time>2023-11-02T14:15:02Z</time>
      </trkpt>
      <trkpt lat="48.67684" lon="-4.34449">
        <ele>5</ele>
        <time>2023-11-02T14:15:52Z</time>
      </trkpt>
      <trkpt lat="48.67695" lon="-4.34472">
        <ele>4</ele>
        <time>2023-11-02T14:16:17Z</time>
      </trkpt>
      <trkpt lat="48.67702" lon="-4.34499">
        <ele>4</ele>
        <time>2023-11-02T14:16:43Z</time>
      </trkpt>
      <trkpt lat="48.67714" lon="-4.34523">
        <ele>3</ele>
        <time>2023-11-02T14:17:10Z</time>
      </trkpt>
      <trkpt lat="48.67719" lon="-4.34551">
        <ele>3</ele>
        <time>2023-11-02T14:17:35Z</time>
      </trkpt>
      <trkpt lat="48.67717" lon="-4.3458">
        <ele>3</ele>
        <time>2023-11-02T14:18:01Z</time>
      </trkpt>
      <trkpt lat="48.67712" lon="-4.34607">
        <ele>3</ele>
        <time>2023-11-02T14:18:26Z</time>
      </trkpt>
      <trkpt lat="48.67701" lon="-4.34631">
        <ele>3</ele>
        <time>2023-11-02T14:18:51Z</time>
      </trkpt>
      <trkpt lat="48.6767" lon="-4.34674">
        <ele>4</ele>
        <time>2023-11-02T14:19:47Z</time>
      </trkpt>
      <trkpt lat="48.67651" lon="-4.34675">
        <ele>4</ele>
        <time>2023-11-02T14:20:13Z</time>
      </trkpt>
      <trkpt lat="48.6764" lon="-4.34702">
        <ele>3</ele>
        <time>2023-11-02T14:20:41Z</time>
      </trkpt>
      <trkpt lat="48.67642" lon="-4.34759">
        <ele>2</ele>
        <time>2023-11-02T14:21:31Z</time>
      </trkpt>
      <trkpt lat="48.67632" lon="-4.34783">
        <ele>3</ele>
        <time>2023-11-02T14:21:56Z</time>
      </trkpt>
      <trkpt lat="48.67635" lon="-4.34811">
        <ele>3</ele>
        <time>2023-11-02T14:22:21Z</time>
      </trkpt>
      <trkpt lat="48.67632" lon="-4.34838">
        <ele>3</ele>
        <time>2023-11-02T14:22:45Z</time>
      </trkpt>
      <trkpt lat="48.67639" lon="-4.34867">
        <ele>3</ele>
        <time>2023-11-02T14:23:12Z</time>
      </trkpt>
      <trkpt lat="48.67638" lon="-4.34898">
        <ele>2</ele>
        <time>2023-11-02T14:23:40Z</time>
      </trkpt>
      <trkpt lat="48.67646" lon="-4.34924">
        <ele>2</ele>
        <time>2023-11-02T14:24:05Z</time>
      </trkpt>
      <trkpt lat="48.67649" lon="-4.34981">
        <ele>1</ele>
        <time>2023-11-02T14:24:55Z</time>
      </trkpt>
      <trkpt lat="48.67626" lon="-4.35057">
        <ele>1</ele>
        <time>2023-11-02T14:26:09Z</time>
      </trkpt>
      <trkpt lat="48.67625" lon="-4.35085">
        <ele>1</ele>
        <time>2023-11-02T14:26:34Z</time>
      </trkpt>
      <trkpt lat="48.67611" lon="-4.35109">
        <ele>2</ele>
        <time>2023-11-02T14:27:02Z</time>
      </trkpt>
      <trkpt lat="48.67595" lon="-4.35159">
        <ele>1</ele>
        <time>2023-11-02T14:27:51Z</time>
      </trkpt>
      <trkpt lat="48.67584" lon="-4.35181">
        <ele>1</ele>
        <time>2023-11-02T14:28:15Z</time>
      </trkpt>
      <trkpt lat="48.67567" lon="-4.35193">
        <ele>2</ele>
        <time>2023-11-02T14:28:40Z</time>
      </trkpt>
      <trkpt lat="48.67535" lon="-4.35228">
        <ele>3</ele>
        <time>2023-11-02T14:29:33Z</time>
      </trkpt>
      <trkpt lat="48.67517" lon="-4.35278">
        <ele>2</ele>
        <time>2023-11-02T14:30:23Z</time>
      </trkpt>
      <trkpt lat="48.67504" lon="-4.353">
        <ele>2</ele>
        <time>2023-11-02T14:30:49Z</time>
      </trkpt>
      <trkpt lat="48.67497" lon="-4.35327">
        <ele>1</ele>
        <time>2023-11-02T14:31:15Z</time>
      </trkpt>
      <trkpt lat="48.67484" lon="-4.35348">
        <ele>2</ele>
        <time>2023-11-02T14:31:40Z</time>
      </trkpt>
      <trkpt lat="48.67468" lon="-4.35361">
        <ele>3</ele>
        <time>2023-11-02T14:32:04Z</time>
      </trkpt>
      <trkpt lat="48.67453" lon="-4.35346">
        <ele>4</ele>
        <time>2023-11-02T14:32:28Z</time>
      </trkpt>
      <trkpt lat="48.67419" lon="-4.35367">
        <ele>7</ele>
        <time>2023-11-02T14:33:17Z</time>
      </trkpt>
      <trkpt lat="48.67373" lon="-4.35458">
        <ele>6</ele>
        <time>2023-11-02T14:34:58Z</time>
      </trkpt>
      <trkpt lat="48.67357" lon="-4.35471">
        <ele>7</ele>
        <time>2023-11-02T14:35:22Z</time>
      </trkpt>
      <trkpt lat="48.67355" lon="-4.355">
        <ele>6</ele>
        <time>2023-11-02T14:35:48Z</time>
      </trkpt>
      <trkpt lat="48.67317" lon="-4.35606">
        <ele>6</ele>
        <time>2023-11-02T14:37:34Z</time>
      </trkpt>
      <trkpt lat="48.673" lon="-4.35619">
        <ele>6</ele>
        <time>2023-11-02T14:38:00Z</time>
      </trkpt>
      <trkpt lat="48.67293" lon="-4.35644">
        <ele>6</ele>
        <time>2023-11-02T14:38:24Z</time>
      </trkpt>
      <trkpt lat="48.67292" lon="-4.35672">
        <ele>5</ele>
        <time>2023-11-02T14:38:49Z</time>
      </trkpt>
      <trkpt lat="48.67282" lon="-4.35696">
        <ele>4</ele>
        <time>2023-11-02T14:39:14Z</time>
      </trkpt>
      <trkpt lat="48.67265" lon="-4.35706">
        <ele>4</ele>
        <time>2023-11-02T14:39:38Z</time>
      </trkpt>
      <trkpt lat="48.67253" lon="-4.35726">
        <ele>4</ele>
        <time>2023-11-02T14:40:02Z</time>
      </trkpt>
      <trkpt lat="48.67218" lon="-4.35756">
        <ele>4</ele>
        <time>2023-11-02T14:40:55Z</time>
      </trkpt>
      <trkpt lat="48.67204" lon="-4.35777">
        <ele>4</ele>
        <time>2023-11-02T14:41:22Z</time>
      </trkpt>
      <trkpt lat="48.67187" lon="-4.35791">
        <ele>5</ele>
        <time>2023-11-02T14:41:47Z</time>
      </trkpt>
      <trkpt lat="48.67182" lon="-4.35818">
        <ele>4</ele>
        <time>2023-11-02T14:42:12Z</time>
      </trkpt>
      <trkpt lat="48.67192" lon="-4.35843">
        <ele>4</ele>
        <time>2023-11-02T14:42:38Z</time>
      </trkpt>
      <trkpt lat="48.67155" lon="-4.35911">
        <ele>2</ele>
        <time>2023-11-02T14:43:56Z</time>
      </trkpt>
      <trkpt lat="48.67112" lon="-4.36006">
        <ele>2</ele>
        <time>2023-11-02T14:45:37Z</time>
      </trkpt>
      <trkpt lat="48.67097" lon="-4.36025">
        <ele>3</ele>
        <time>2023-11-02T14:46:03Z</time>
      </trkpt>
      <trkpt lat="48.67086" lon="-4.36046">
        <ele>5</ele>
        <time>2023-11-02T14:46:27Z</time>
      </trkpt>
      <trkpt lat="48.67077" lon="-4.36102">
        <ele>5</ele>
        <time>2023-11-02T14:47:18Z</time>
      </trkpt>
      <trkpt lat="48.67066" lon="-4.36125">
        <ele>5</ele>
        <time>2023-11-02T14:47:43Z</time>
      </trkpt>
      <trkpt lat="48.67062" lon="-4.36181">
        <ele>3</ele>
        <time>2023-11-02T14:48:32Z</time>
      </trkpt>
      <trkpt lat="48.67046" lon="-4.36231">
        <ele>3</ele>
        <time>2023-11-02T14:49:21Z</time>
      </trkpt>
      <trkpt lat="48.6704" lon="-4.36258">
        <ele>3</ele>
        <time>2023-11-02T14:49:46Z</time>
      </trkpt>
      <trkpt lat="48.67007" lon="-4.36326">
        <ele>3</ele>
        <time>2023-11-02T14:51:01Z</time>
      </trkpt>
      <trkpt lat="48.66979" lon="-4.36363">
        <ele>3</ele>
        <time>2023-11-02T14:51:50Z</time>
      </trkpt>
      <trkpt lat="48.66969" lon="-4.36386">
        <ele>4</ele>
        <time>2023-11-02T14:52:15Z</time>
      </trkpt>
      <trkpt lat="48.6694" lon="-4.36423">
        <ele>5</ele>
        <time>2023-11-02T14:53:05Z</time>
      </trkpt>
      <trkpt lat="48.66924" lon="-4.36437">
        <ele>6</ele>
        <time>2023-11-02T14:53:30Z</time>
      </trkpt>
      <trkpt lat="48.66917" lon="-4.36464">
        <ele>5</ele>
        <time>2023-11-02T14:53:55Z</time>
      </trkpt>
      <trkpt lat="48.66883" lon="-4.36533">
        <ele>4</ele>
        <time>2023-11-02T14:55:11Z</time>
      </trkpt>
      <trkpt lat="48.66869" lon="-4.36586">
        <ele>4</ele>
        <time>2023-11-02T14:56:02Z</time>
      </trkpt>
      <trkpt lat="48.66864" lon="-4.36614">
        <ele>5</ele>
        <time>2023-11-02T14:56:27Z</time>
      </trkpt>
      <trkpt lat="48.66835" lon="-4.36685">
        <ele>9</ele>
        <time>2023-11-02T14:57:41Z</time>
      </trkpt>
      <trkpt lat="48.66839" lon="-4.36713">
        <ele>8</ele>
        <time>2023-11-02T14:58:06Z</time>
      </trkpt>
      <trkpt lat="48.66837" lon="-4.36741">
        <ele>9</ele>
        <time>2023-11-02T14:58:31Z</time>
      </trkpt>
      <trkpt lat="48.66832" lon="-4.36767">
        <ele>9</ele>
        <time>2023-11-02T14:58:55Z</time>
      </trkpt>
      <trkpt lat="48.66823" lon="-4.36792">
        <ele>8</ele>
        <time>2023-11-02T14:59:20Z</time>
      </trkpt>
      <trkpt lat="48.6682" lon="-4.36819">
        <ele>7</ele>
        <time>2023-11-02T14:59:44Z</time>
      </trkpt>
      <trkpt lat="48.66825" lon="-4.36846">
        <ele>7</ele>
        <time>2023-11-02T15:00:09Z</time>
      </trkpt>
      <trkpt lat="48.66821" lon="-4.36902">
        <ele>7</ele>
        <time>2023-11-02T15:00:58Z</time>
      </trkpt>
      <trkpt lat="48.66805" lon="-4.36952">
        <ele>5</ele>
        <time>2023-11-02T15:01:47Z</time>
      </trkpt>
      <trkpt lat="48.66809" lon="-4.36981">
        <ele>5</ele>
        <time>2023-11-02T15:02:13Z</time>
      </trkpt>
      <trkpt lat="48.66812" lon="-4.37036">
        <ele>5</ele>
        <time>2023-11-02T15:03:02Z</time>
      </trkpt>
      <trkpt lat="48.66796" lon="-4.3705">
        <ele>6</ele>
        <time>2023-11-02T15:03:27Z</time>
      </trkpt>
      <trkpt lat="48.66778" lon="-4.37056">
        <ele>6</ele>
        <time>2023-11-02T15:03:51Z</time>
      </trkpt>
      <trkpt lat="48.66773" lon="-4.37083">
        <ele>7</ele>
        <time>2023-11-02T15:04:16Z</time>
      </trkpt>
      <trkpt lat="48.66754" lon="-4.3713">
        <ele>8</ele>
        <time>2023-11-02T15:05:04Z</time>
      </trkpt>
      <trkpt lat="48.6675" lon="-4.37157">
        <ele>9</ele>
        <time>2023-11-02T15:05:29Z</time>
      </trkpt>
      <trkpt lat="48.66735" lon="-4.37174">
        <ele>8</ele>
        <time>2023-11-02T15:05:54Z</time>
      </trkpt>
      <trkpt lat="48.66719" lon="-4.37185">
        <ele>8</ele>
        <time>2023-11-02T15:06:17Z</time>
      </trkpt>
      <trkpt lat="48.6671" lon="-4.37209">
        <ele>7</ele>
        <time>2023-11-02T15:06:42Z</time>
      </trkpt>
      <trkpt lat="48.66704" lon="-4.37235">
        <ele>6</ele>
        <time>2023-11-02T15:07:06Z</time>
      </trkpt>
      <trkpt lat="48.66719" lon="-4.37251">
        <ele>6</ele>
        <time>2023-11-02T15:07:30Z</time>
      </trkpt>
      <trkpt lat="48.66737" lon="-4.37257">
        <ele>7</ele>
        <time>2023-11-02T15:07:55Z</time>
      </trkpt>
      <trkpt lat="48.66756" lon="-4.37255">
        <ele>8</ele>
        <time>2023-11-02T15:08:20Z</time>
      </trkpt>
      <trkpt lat="48.66775" lon="-4.37258">
        <ele>8</ele>
        <time>2023-11-02T15:08:46Z</time>
      </trkpt>
      <trkpt lat="48.66793" lon="-4.37264">
        <ele>7</ele>
        <time>2023-11-02T15:09:10Z</time>
      </trkpt>
      <trkpt lat="48.66791" lon="-4.37292">
        <ele>6</ele>
        <time>2023-11-02T15:09:35Z</time>
      </trkpt>
      <trkpt lat="48.66771" lon="-4.37338">
        <ele>4</ele>
        <time>2023-11-02T15:10:24Z</time>
      </trkpt>
      <trkpt lat="48.66721" lon="-4.37379">
        <ele>5</ele>
        <time>2023-11-02T15:11:40Z</time>
      </trkpt>
      <trkpt lat="48.66703" lon="-4.37383">
        <ele>5</ele>
        <time>2023-11-02T15:12:04Z</time>
      </trkpt>
      <trkpt lat="48.66695" lon="-4.37409">
        <ele>5</ele>
        <time>2023-11-02T15:12:29Z</time>
      </trkpt>
      <trkpt lat="48.66681" lon="-4.37427">
        <ele>5</ele>
        <time>2023-11-02T15:12:54Z</time>
      </trkpt>
      <trkpt lat="48.66664" lon="-4.37438">
        <ele>5</ele>
        <time>2023-11-02T15:13:18Z</time>
      </trkpt>
      <trkpt lat="48.66661" lon="-4.37466">
        <ele>4</ele>
        <time>2023-11-02T15:13:43Z</time>
      </trkpt>
      <trkpt lat="48.66649" lon="-4.3752">
        <ele>4</ele>
        <time>2023-11-02T15:14:34Z</time>
      </trkpt>
      <trkpt lat="48.66632" lon="-4.37531">
        <ele>4</ele>
        <time>2023-11-02T15:14:58Z</time>
      </trkpt>
      <trkpt lat="48.66614" lon="-4.37534">
        <ele>4</ele>
        <time>2023-11-02T15:15:22Z</time>
      </trkpt>
      <trkpt lat="48.66595" lon="-4.37532">
        <ele>4</ele>
        <time>2023-11-02T15:15:48Z</time>
      </trkpt>
      <trkpt lat="48.66578" lon="-4.37519">
        <ele>4</ele>
        <time>2023-11-02T15:16:13Z</time>
      </trkpt>
      <trkpt lat="48.66559" lon="-4.37517">
        <ele>5</ele>
        <time>2023-11-02T15:16:39Z</time>
      </trkpt>
      <trkpt lat="48.66503" lon="-4.37522">
        <ele>5</ele>
        <time>2023-11-02T15:17:54Z</time>
      </trkpt>
      <trkpt lat="48.66485" lon="-4.37526">
        <ele>5</ele>
        <time>2023-11-02T15:18:18Z</time>
      </trkpt>
      <trkpt lat="48.66467" lon="-4.37536">
        <ele>5</ele>
        <time>2023-11-02T15:18:43Z</time>
      </trkpt>
      <trkpt lat="48.66418" lon="-4.3758">
        <ele>6</ele>
        <time>2023-11-02T15:19:59Z</time>
      </trkpt>
      <trkpt lat="48.66405" lon="-4.37601">
        <ele>5</ele>
        <time>2023-11-02T15:20:25Z</time>
      </trkpt>
      <trkpt lat="48.66388" lon="-4.37613">
        <ele>5</ele>
        <time>2023-11-02T15:20:50Z</time>
      </trkpt>
      <trkpt lat="48.66361" lon="-4.37653">
        <ele>4</ele>
        <time>2023-11-02T15:21:40Z</time>
      </trkpt>
      <trkpt lat="48.66345" lon="-4.3767">
        <ele>5</ele>
        <time>2023-11-02T15:22:06Z</time>
      </trkpt>
      <trkpt lat="48.66321" lon="-4.37715">
        <ele>5</ele>
        <time>2023-11-02T15:22:57Z</time>
      </trkpt>
      <trkpt lat="48.66311" lon="-4.37739">
        <ele>5</ele>
        <time>2023-11-02T15:23:22Z</time>
      </trkpt>
      <trkpt lat="48.66269" lon="-4.37866">
        <ele>4</ele>
        <time>2023-11-02T15:25:28Z</time>
      </trkpt>
      <trkpt lat="48.66257" lon="-4.3792">
        <ele>6</ele>
        <time>2023-11-02T15:26:18Z</time>
      </trkpt>
      <trkpt lat="48.66258" lon="-4.37949">
        <ele>5</ele>
        <time>2023-11-02T15:26:43Z</time>
      </trkpt>
      <trkpt lat="48.66254" lon="-4.37977">
        <ele>4</ele>
        <time>2023-11-02T15:27:09Z</time>
      </trkpt>
      <trkpt lat="48.66252" lon="-4.38032">
        <ele>3</ele>
        <time>2023-11-02T15:27:57Z</time>
      </trkpt>
      <trkpt lat="48.66247" lon="-4.38058">
        <ele>3</ele>
        <time>2023-11-02T15:28:21Z</time>
      </trkpt>
      <trkpt lat="48.6624" lon="-4.38084">
        <ele>2</ele>
        <time>2023-11-02T15:28:46Z</time>
      </trkpt>
      <trkpt lat="48.66223" lon="-4.38095">
        <ele>2</ele>
        <time>2023-11-02T15:29:10Z</time>
      </trkpt>
      <trkpt lat="48.66215" lon="-4.38121">
        <ele>2</ele>
        <time>2023-11-02T15:29:36Z</time>
      </trkpt>
      <trkpt lat="48.66205" lon="-4.38143">
        <ele>2</ele>
        <time>2023-11-02T15:29:59Z</time>
      </trkpt>
      <trkpt lat="48.66213" lon="-4.38117">
        <ele>2</ele>
        <time>2023-11-02T15:30:25Z</time>
      </trkpt>
      <trkpt lat="48.66216" lon="-4.38061">
        <ele>3</ele>
        <time>2023-11-02T15:31:14Z</time>
      </trkpt>
      <trkpt lat="48.66205" lon="-4.37978">
        <ele>4</ele>
        <time>2023-11-02T15:32:29Z</time>
      </trkpt>
      <trkpt lat="48.66202" lon="-4.37894">
        <ele>4</ele>
        <time>2023-11-02T15:33:43Z</time>
      </trkpt>
      <trkpt lat="48.66188" lon="-4.37875">
        <ele>3</ele>
        <time>2023-11-02T15:34:08Z</time>
      </trkpt>
      <trkpt lat="48.6617" lon="-4.37874">
        <ele>3</ele>
        <time>2023-11-02T15:34:32Z</time>
      </trkpt>
      <trkpt lat="48.66152" lon="-4.37868">
        <ele>3</ele>
        <time>2023-11-02T15:34:57Z</time>
      </trkpt>
      <trkpt lat="48.66133" lon="-4.37869">
        <ele>3</ele>
        <time>2023-11-02T15:35:22Z</time>
      </trkpt>
      <trkpt lat="48.66115" lon="-4.37867">
        <ele>3</ele>
        <time>2023-11-02T15:35:46Z</time>
      </trkpt>
      <trkpt lat="48.66079" lon="-4.37858">
        <ele>3</ele>
        <time>2023-11-02T15:36:35Z</time>
      </trkpt>
      <trkpt lat="48.66042" lon="-4.37853">
        <ele>3</ele>
        <time>2023-11-02T15:37:24Z</time>
      </trkpt>
      <trkpt lat="48.66024" lon="-4.37858">
        <ele>3</ele>
        <time>2023-11-02T15:37:49Z</time>
      </trkpt>
      <trkpt lat="48.66006" lon="-4.37867">
        <ele>3</ele>
        <time>2023-11-02T15:38:14Z</time>
      </trkpt>
      <trkpt lat="48.65989" lon="-4.3788">
        <ele>2</ele>
        <time>2023-11-02T15:38:39Z</time>
      </trkpt>
      <trkpt lat="48.65931" lon="-4.37947">
        <ele>2</ele>
        <time>2023-11-02T15:40:17Z</time>
      </trkpt>
      <trkpt lat="48.65925" lon="-4.37974">
        <ele>3</ele>
        <time>2023-11-02T15:40:42Z</time>
      </trkpt>
      <trkpt lat="48.65864" lon="-4.38085">
        <ele>2</ele>
        <time>2023-11-02T15:42:49Z</time>
      </trkpt>
      <trkpt lat="48.65855" lon="-4.38109">
        <ele>2</ele>
        <time>2023-11-02T15:43:13Z</time>
      </trkpt>
      <trkpt lat="48.65898" lon="-4.38164">
        <ele>3</ele>
        <time>2023-11-02T15:44:29Z</time>
      </trkpt>
      <trkpt lat="48.65929" lon="-4.38196">
        <ele>4</ele>
        <time>2023-11-02T15:45:19Z</time>
      </trkpt>
      <trkpt lat="48.65971" lon="-4.38251">
        <ele>4</ele>
        <time>2023-11-02T15:46:33Z</time>
      </trkpt>
      <trkpt lat="48.65997" lon="-4.38291">
        <ele>4</ele>
        <time>2023-11-02T15:47:22Z</time>
      </trkpt>
      <trkpt lat="48.66007" lon="-4.38314">
        <ele>4</ele>
        <time>2023-11-02T15:47:47Z</time>
      </trkpt>
      <trkpt lat="48.66015" lon="-4.38341">
        <ele>4</ele>
        <time>2023-11-02T15:48:13Z</time>
      </trkpt>
      <trkpt lat="48.66026" lon="-4.38393">
        <ele>4</ele>
        <time>2023-11-02T15:49:01Z</time>
      </trkpt>
      <trkpt lat="48.66021" lon="-4.38421">
        <ele>4</ele>
        <time>2023-11-02T15:49:26Z</time>
      </trkpt>
      <trkpt lat="48.66013" lon="-4.38447">
        <ele>4</ele>
        <time>2023-11-02T15:49:52Z</time>
      </trkpt>
      <trkpt lat="48.66005" lon="-4.38532">
        <ele>3</ele>
        <time>2023-11-02T15:51:07Z</time>
      </trkpt>
      <trkpt lat="48.65999" lon="-4.38559">
        <ele>3</ele>
        <time>2023-11-02T15:51:32Z</time>
      </trkpt>
      <trkpt lat="48.65998" lon="-4.38615">
        <ele>3</ele>
        <time>2023-11-02T15:52:22Z</time>
      </trkpt>
      <trkpt lat="48.66001" lon="-4.38642">
        <ele>4</ele>
        <time>2023-11-02T15:52:46Z</time>
      </trkpt>
      <trkpt lat="48.66013" lon="-4.38663">
        <ele>3</ele>
        <time>2023-11-02T15:53:10Z</time>
      </trkpt>
      <trkpt lat="48.66028" lon="-4.3868">
        <ele>3</ele>
        <time>2023-11-02T15:53:35Z</time>
      </trkpt>
      <trkpt lat="48.66033" lon="-4.38735">
        <ele>2</ele>
        <time>2023-11-02T15:54:24Z</time>
      </trkpt>
      <trkpt lat="48.66047" lon="-4.38785">
        <ele>1</ele>
        <time>2023-11-02T15:55:12Z</time>
      </trkpt>
      <trkpt lat="48.66063" lon="-4.38799">
        <ele>7.5</ele>
        <time>2023-11-02T15:55:37Z</time>
      </trkpt>
      <trkpt lat="48.66075" lon="-4.3882">
        <ele>6.5</ele>
        <time>2023-11-02T15:56:01Z</time>
      </trkpt>
      <trkpt lat="48.66093" lon="-4.38826">
        <ele>5.8</ele>
        <time>2023-11-02T15:56:26Z</time>
      </trkpt>
      <trkpt lat="48.66088" lon="-4.38853">
        <ele>3.3</ele>
        <time>2023-11-02T15:56:51Z</time>
      </trkpt>
      <trkpt lat="48.66072" lon="-4.38903">
        <ele>2.5</ele>
        <time>2023-11-02T15:57:40Z</time>
      </trkpt>
      <trkpt lat="48.66077" lon="-4.38929">
        <ele>2</ele>
        <time>2023-11-02T15:58:03Z</time>
      </trkpt>
      <trkpt lat="48.66091" lon="-4.38947">
        <ele>1.9</ele>
        <time>2023-11-02T15:58:28Z</time>
      </trkpt>
      <trkpt lat="48.66091" lon="-4.38975">
        <ele>1</ele>
        <time>2023-11-02T15:58:53Z</time>
      </trkpt>
      <trkpt lat="48.66076" lon="-4.3896">
        <ele>1.6</ele>
        <time>2023-11-02T15:59:17Z</time>
      </trkpt>
      <trkpt lat="48.66068" lon="-4.38935">
        <ele>2</ele>
        <time>2023-11-02T15:59:41Z</time>
      </trkpt>
      <trkpt lat="48.66064" lon="-4.38908">
        <ele>2.3</ele>
        <time>2023-11-02T16:00:06Z</time>
      </trkpt>
      <trkpt lat="48.66068" lon="-4.38881">
        <ele>3.3</ele>
        <time>2023-11-02T16:00:30Z</time>
      </trkpt>
      <trkpt lat="48.66087" lon="-4.38834">
        <ele>4.2</ele>
        <time>2023-11-02T16:01:18Z</time>
      </trkpt>
      <trkpt lat="48.66079" lon="-4.38859">
        <ele>3.4</ele>
        <time>2023-11-02T16:01:43Z</time>
      </trkpt>
      <trkpt lat="48.66065" lon="-4.38878">
        <ele>3.5</ele>
        <time>2023-11-02T16:02:08Z</time>
      </trkpt>
      <trkpt lat="48.6605" lon="-4.38893">
        <ele>3.2</ele>
        <time>2023-11-02T16:02:32Z</time>
      </trkpt>
      <trkpt lat="48.65984" lon="-4.38943">
        <ele>1</ele>
        <time>2023-11-02T16:04:11Z</time>
      </trkpt>
      <trkpt lat="48.65968" lon="-4.38959">
        <ele>2</ele>
        <time>2023-11-02T16:04:36Z</time>
      </trkpt>
      <trkpt lat="48.6595" lon="-4.38965">
        <ele>2</ele>
        <time>2023-11-02T16:05:01Z</time>
      </trkpt>
      <trkpt lat="48.65934" lon="-4.38979">
        <ele>2</ele>
        <time>2023-11-02T16:05:25Z</time>
      </trkpt>
      <trkpt lat="48.6592" lon="-4.38996">
        <ele>2</ele>
        <time>2023-11-02T16:05:49Z</time>
      </trkpt>
      <trkpt lat="48.65902" lon="-4.39002">
        <ele>3</ele>
        <time>2023-11-02T16:06:14Z</time>
      </trkpt>
      <trkpt lat="48.65883" lon="-4.39001">
        <ele>4</ele>
        <time>2023-11-02T16:06:39Z</time>
      </trkpt>
      <trkpt lat="48.65874" lon="-4.39026">
        <ele>3</ele>
        <time>2023-11-02T16:07:04Z</time>
      </trkpt>
      <trkpt lat="48.65848" lon="-4.39065">
        <ele>4</ele>
        <time>2023-11-02T16:07:53Z</time>
      </trkpt>
      <trkpt lat="48.65825" lon="-4.39112">
        <ele>4</ele>
        <time>2023-11-02T16:08:45Z</time>
      </trkpt>
      <trkpt lat="48.65788" lon="-4.39171">
        <ele>3</ele>
        <time>2023-11-02T16:09:56Z</time>
      </trkpt>
      <trkpt lat="48.65773" lon="-4.3919">
        <ele>3</ele>
        <time>2023-11-02T16:10:23Z</time>
      </trkpt>
      <trkpt lat="48.65753" lon="-4.39236">
        <ele>3</ele>
        <time>2023-11-02T16:11:11Z</time>
      </trkpt>
      <trkpt lat="48.65736" lon="-4.39288">
        <ele>3</ele>
        <time>2023-11-02T16:12:02Z</time>
      </trkpt>
      <trkpt lat="48.65725" lon="-4.39311">
        <ele>3</ele>
        <time>2023-11-02T16:12:27Z</time>
      </trkpt>
      <trkpt lat="48.65718" lon="-4.39336">
        <ele>3</ele>
        <time>2023-11-02T16:12:51Z</time>
      </trkpt>
      <trkpt lat="48.65712" lon="-4.39393">
        <ele>3</ele>
        <time>2023-11-02T16:13:42Z</time>
      </trkpt>
      <trkpt lat="48.65713" lon="-4.3945">
        <ele>2</ele>
        <time>2023-11-02T16:14:32Z</time>
      </trkpt>
      <trkpt lat="48.65685" lon="-4.39487">
        <ele>2</ele>
        <time>2023-11-02T16:15:22Z</time>
      </trkpt>
      <trkpt lat="48.65673" lon="-4.39509">
        <ele>2</ele>
        <time>2023-11-02T16:15:47Z</time>
      </trkpt>
      <trkpt lat="48.65644" lon="-4.39546">
        <ele>2</ele>
        <time>2023-11-02T16:16:38Z</time>
      </trkpt>
      <trkpt lat="48.65633" lon="-4.39568">
        <ele>2</ele>
        <time>2023-11-02T16:17:02Z</time>
      </trkpt>
      <trkpt lat="48.65625" lon="-4.39594">
        <ele>2</ele>
        <time>2023-11-02T16:17:27Z</time>
      </trkpt>
      <trkpt lat="48.65612" lon="-4.39616">
        <ele>2</ele>
        <time>2023-11-02T16:17:53Z</time>
      </trkpt>
      <trkpt lat="48.65572" lon="-4.39743">
        <ele>2</ele>
        <time>2023-11-02T16:19:57Z</time>
      </trkpt>
      <trkpt lat="48.65552" lon="-4.39823">
        <ele>2</ele>
        <time>2023-11-02T16:21:13Z</time>
      </trkpt>
      <trkpt lat="48.65546" lon="-4.3985">
        <ele>2</ele>
        <time>2023-11-02T16:21:38Z</time>
      </trkpt>
      <trkpt lat="48.65535" lon="-4.39933">
        <ele>2</ele>
        <time>2023-11-02T16:22:53Z</time>
      </trkpt>
      <trkpt lat="48.65505" lon="-4.40097">
        <ele>4</ele>
        <time>2023-11-02T16:25:23Z</time>
      </trkpt>
      <trkpt lat="48.65493" lon="-4.40181">
        <ele>3</ele>
        <time>2023-11-02T16:26:38Z</time>
      </trkpt>
      <trkpt lat="48.65487" lon="-4.40207">
        <ele>3</ele>
        <time>2023-11-02T16:27:03Z</time>
      </trkpt>
      <trkpt lat="48.65477" lon="-4.4023">
        <ele>4</ele>
        <time>2023-11-02T16:27:27Z</time>
      </trkpt>
      <trkpt lat="48.6547" lon="-4.40287">
        <ele>3</ele>
        <time>2023-11-02T16:28:18Z</time>
      </trkpt>
      <trkpt lat="48.65463" lon="-4.40313">
        <ele>2</ele>
        <time>2023-11-02T16:28:43Z</time>
      </trkpt>
      <trkpt lat="48.65456" lon="-4.40398">
        <ele>2</ele>
        <time>2023-11-02T16:29:58Z</time>
      </trkpt>
      <trkpt lat="48.65445" lon="-4.4048">
        <ele>3</ele>
        <time>2023-11-02T16:31:12Z</time>
      </trkpt>
      <trkpt lat="48.65434" lon="-4.40591">
        <ele>4</ele>
        <time>2023-11-02T16:32:51Z</time>
      </trkpt>
      <trkpt lat="48.65428" lon="-4.40618">
        <ele>3</ele>
        <time>2023-11-02T16:33:16Z</time>
      </trkpt>
      <trkpt lat="48.65427" lon="-4.40645">
        <ele>2</ele>
        <time>2023-11-02T16:33:40Z</time>
      </trkpt>
      <trkpt lat="48.65414" lon="-4.40757">
        <ele>1</ele>
        <time>2023-11-02T16:35:20Z</time>
      </trkpt>
      <trkpt lat="48.65408" lon="-4.40841">
        <ele>2</ele>
        <time>2023-11-02T16:36:35Z</time>
      </trkpt>
      <trkpt lat="48.65403" lon="-4.40868">
        <ele>2</ele>
        <time>2023-11-02T16:36:59Z</time>
      </trkpt>
      <trkpt lat="48.65391" lon="-4.40889">
        <ele>3</ele>
        <time>2023-11-02T16:37:24Z</time>
      </trkpt>
      <trkpt lat="48.65388" lon="-4.40917">
        <ele>4</ele>
        <time>2023-11-02T16:37:49Z</time>
      </trkpt>
      <trkpt lat="48.65389" lon="-4.40944">
        <ele>4</ele>
        <time>2023-11-02T16:38:13Z</time>
      </trkpt>
      <trkpt lat="48.65404" lon="-4.40961">
        <ele>3</ele>
        <time>2023-11-02T16:38:38Z</time>
      </trkpt>
      <trkpt lat="48.6542" lon="-4.40972">
        <ele>3</ele>
        <time>2023-11-02T16:39:01Z</time>
      </trkpt>
      <trkpt lat="48.65411" lon="-4.40996">
        <ele>3</ele>
        <time>2023-11-02T16:39:25Z</time>
      </trkpt>
      <trkpt lat="48.65414" lon="-4.41024">
        <ele>4</ele>
        <time>2023-11-02T16:39:50Z</time>
      </trkpt>
      <trkpt lat="48.65422" lon="-4.4105">
        <ele>5</ele>
        <time>2023-11-02T16:40:16Z</time>
      </trkpt>
      <trkpt lat="48.65433" lon="-4.41072">
        <ele>5</ele>
        <time>2023-11-02T16:40:40Z</time>
      </trkpt>
      <trkpt lat="48.65437" lon="-4.41099">
        <ele>5</ele>
        <time>2023-11-02T16:41:04Z</time>
      </trkpt>
      <trkpt lat="48.65428" lon="-4.41153">
        <ele>7</ele>
        <time>2023-11-02T16:41:54Z</time>
      </trkpt>
      <trkpt lat="48.65438" lon="-4.41178">
        <ele>7</ele>
        <time>2023-11-02T16:42:19Z</time>
      </trkpt>
      <trkpt lat="48.65433" lon="-4.41232">
        <ele>8</ele>
        <time>2023-11-02T16:43:07Z</time>
      </trkpt>
      <trkpt lat="48.65422" lon="-4.41288">
        <ele>9</ele>
        <time>2023-11-02T16:43:59Z</time>
      </trkpt>
      <trkpt lat="48.65412" lon="-4.41313">
        <ele>9</ele>
        <time>2023-11-02T16:44:25Z</time>
      </trkpt>
      <trkpt lat="48.65415" lon="-4.41341">
        <ele>9</ele>
        <time>2023-11-02T16:44:50Z</time>
      </trkpt>
      <trkpt lat="48.65408" lon="-4.41368">
        <ele>8</ele>
        <time>2023-11-02T16:45:15Z</time>
      </trkpt>
      <trkpt lat="48.65407" lon="-4.41395">
        <ele>8</ele>
        <time>2023-11-02T16:45:39Z</time>
      </trkpt>
      <trkpt lat="48.65391" lon="-4.41479">
        <ele>8</ele>
        <time>2023-11-02T16:46:56Z</time>
      </trkpt>
      <trkpt lat="48.65379" lon="-4.415">
        <ele>8</ele>
        <time>2023-11-02T16:47:21Z</time>
      </trkpt>
      <trkpt lat="48.65374" lon="-4.41527">
        <ele>8</ele>
        <time>2023-11-02T16:47:45Z</time>
      </trkpt>
      <trkpt lat="48.65374" lon="-4.41556">
        <ele>7</ele>
        <time>2023-11-02T16:48:11Z</time>
      </trkpt>
      <trkpt lat="48.65388" lon="-4.41575">
        <ele>7</ele>
        <time>2023-11-02T16:48:36Z</time>
      </trkpt>
      <trkpt lat="48.6544" lon="-4.41605">
        <ele>5</ele>
        <time>2023-11-02T16:49:50Z</time>
      </trkpt>
      <trkpt lat="48.65475" lon="-4.4167">
        <ele>2</ele>
        <time>2023-11-02T16:51:04Z</time>
      </trkpt>
      <trkpt lat="48.65482" lon="-4.41695">
        <ele>1</ele>
        <time>2023-11-02T16:51:28Z</time>
      </trkpt>
      <trkpt lat="48.65476" lon="-4.41722">
        <ele>1</ele>
        <time>2023-11-02T16:51:53Z</time>
      </trkpt>
      <trkpt lat="48.65475" lon="-4.41751">
        <ele>1</ele>
        <time>2023-11-02T16:52:19Z</time>
      </trkpt>
      <trkpt lat="48.65466" lon="-4.41775">
        <ele>1</ele>
        <time>2023-11-02T16:52:43Z</time>
      </trkpt>
      <trkpt lat="48.65454" lon="-4.41798">
        <ele>1</ele>
        <time>2023-11-02T16:53:09Z</time>
      </trkpt>
      <trkpt lat="48.6543" lon="-4.41874">
        <ele>8.7</ele>
        <time>2023-11-02T16:54:23Z</time>
      </trkpt>
      <trkpt lat="48.65389" lon="-4.41928">
        <ele>2</ele>
        <time>2023-11-02T16:55:36Z</time>
      </trkpt>
      <trkpt lat="48.65382" lon="-4.41953">
        <ele>2</ele>
        <time>2023-11-02T16:56:00Z</time>
      </trkpt>
      <trkpt lat="48.65386" lon="-4.41981">
        <ele>2</ele>
        <time>2023-11-02T16:56:25Z</time>
      </trkpt>
      <trkpt lat="48.65382" lon="-4.42008">
        <ele>2</ele>
        <time>2023-11-02T16:56:49Z</time>
      </trkpt>
      <trkpt lat="48.65356" lon="-4.4205">
        <ele>3</ele>
        <time>2023-11-02T16:57:40Z</time>
      </trkpt>
      <trkpt lat="48.65349" lon="-4.42076">
        <ele>3</ele>
        <time>2023-11-02T16:58:05Z</time>
      </trkpt>
      <trkpt lat="48.65304" lon="-4.42166">
        <ele>3</ele>
        <time>2023-11-02T16:59:44Z</time>
      </trkpt>
      <trkpt lat="48.65289" lon="-4.42216">
        <ele>4</ele>
        <time>2023-11-02T17:00:33Z</time>
      </trkpt>
      <trkpt lat="48.65284" lon="-4.42243">
        <ele>4</ele>
        <time>2023-11-02T17:00:57Z</time>
      </trkpt>
      <trkpt lat="48.65273" lon="-4.42264">
        <ele>4</ele>
        <time>2023-11-02T17:01:21Z</time>
      </trkpt>
      <trkpt lat="48.65268" lon="-4.42293">
        <ele>4</ele>
        <time>2023-11-02T17:01:48Z</time>
      </trkpt>
      <trkpt lat="48.65267" lon="-4.42321">
        <ele>4</ele>
        <time>2023-11-02T17:02:12Z</time>
      </trkpt>
      <trkpt lat="48.65252" lon="-4.42401">
        <ele>5</ele>
        <time>2023-11-02T17:03:26Z</time>
      </trkpt>
      <trkpt lat="48.65241" lon="-4.42455">
        <ele>5</ele>
        <time>2023-11-02T17:04:15Z</time>
      </trkpt>
      <trkpt lat="48.65224" lon="-4.42506">
        <ele>4</ele>
        <time>2023-11-02T17:05:06Z</time>
      </trkpt>
      <trkpt lat="48.65218" lon="-4.4259">
        <ele>4</ele>
        <time>2023-11-02T17:06:20Z</time>
      </trkpt>
      <trkpt lat="48.6521" lon="-4.42644">
        <ele>5</ele>
        <time>2023-11-02T17:07:09Z</time>
      </trkpt>
      <trkpt lat="48.65226" lon="-4.42658">
        <ele>5</ele>
        <time>2023-11-02T17:07:34Z</time>
      </trkpt>
      <trkpt lat="48.65239" lon="-4.42677">
        <ele>4</ele>
        <time>2023-11-02T17:07:58Z</time>
      </trkpt>
      <trkpt lat="48.65263" lon="-4.42719">
        <ele>3</ele>
        <time>2023-11-02T17:08:47Z</time>
      </trkpt>
      <trkpt lat="48.65273" lon="-4.42742">
        <ele>2</ele>
        <time>2023-11-02T17:09:11Z</time>
      </trkpt>
      <trkpt lat="48.65289" lon="-4.42826">
        <ele>1</ele>
        <time>2023-11-02T17:10:28Z</time>
      </trkpt>
      <trkpt lat="48.653" lon="-4.42848">
        <ele>1</ele>
        <time>2023-11-02T17:10:52Z</time>
      </trkpt>
      <trkpt lat="48.65314" lon="-4.429">
        <ele>1</ele>
        <time>2023-11-02T17:11:42Z</time>
      </trkpt>
      <trkpt lat="48.65336" lon="-4.42945">
        <time>2023-11-02T17:12:31Z</time>
      </trkpt>
      <trkpt lat="48.65354" lon="-4.42995">
        <ele>1</ele>
        <time>2023-11-02T17:13:21Z</time>
      </trkpt>
      <trkpt lat="48.65374" lon="-4.43041">
        <ele>2</ele>
        <time>2023-11-02T17:14:10Z</time>
      </trkpt>
      <trkpt lat="48.65381" lon="-4.43067">
        <ele>2</ele>
        <time>2023-11-02T17:14:35Z</time>
      </trkpt>
      <trkpt lat="48.65407" lon="-4.43106">
        <ele>4</ele>
        <time>2023-11-02T17:15:24Z</time>
      </trkpt>
      <trkpt lat="48.65427" lon="-4.43105">
        <ele>3</ele>
        <time>2023-11-02T17:15:50Z</time>
      </trkpt>
      <trkpt lat="48.65444" lon="-4.43098">
        <ele>2</ele>
        <time>2023-11-02T17:16:14Z</time>
      </trkpt>
      <trkpt lat="48.65459" lon="-4.43081">
        <ele>1</ele>
        <time>2023-11-02T17:16:39Z</time>
      </trkpt>
      <trkpt lat="48.65478" lon="-4.43078">
        <ele>1</ele>
        <time>2023-11-02T17:17:04Z</time>
      </trkpt>
      <trkpt lat="48.65493" lon="-4.43097">
        <ele>2</ele>
        <time>2023-11-02T17:17:30Z</time>
      </trkpt>
      <trkpt lat="48.65528" lon="-4.4316">
        <ele>3</ele>
        <time>2023-11-02T17:18:43Z</time>
      </trkpt>
      <trkpt lat="48.65544" lon="-4.43177">
        <ele>3</ele>
        <time>2023-11-02T17:19:09Z</time>
      </trkpt>
      <trkpt lat="48.65543" lon="-4.43206">
        <ele>3</ele>
        <time>2023-11-02T17:19:35Z</time>
      </trkpt>
      <trkpt lat="48.65519" lon="-4.43312">
        <ele>6</ele>
        <time>2023-11-02T17:21:13Z</time>
      </trkpt>
      <trkpt lat="48.6552" lon="-4.43397">
        <ele>7</ele>
        <time>2023-11-02T17:22:28Z</time>
      </trkpt>
      <trkpt lat="48.65524" lon="-4.43424">
        <ele>6</ele>
        <time>2023-11-02T17:22:53Z</time>
      </trkpt>
      <trkpt lat="48.65535" lon="-4.43446">
        <ele>5</ele>
        <time>2023-11-02T17:23:17Z</time>
      </trkpt>
      <trkpt lat="48.65548" lon="-4.43498">
        <ele>4</ele>
        <time>2023-11-02T17:24:06Z</time>
      </trkpt>
      <trkpt lat="48.6556" lon="-4.4352">
        <ele>4</ele>
        <time>2023-11-02T17:24:31Z</time>
      </trkpt>
      <trkpt lat="48.65567" lon="-4.43545">
        <ele>3</ele>
        <time>2023-11-02T17:24:55Z</time>
      </trkpt>
      <trkpt lat="48.65579" lon="-4.43567">
        <ele>3</ele>
        <time>2023-11-02T17:25:20Z</time>
      </trkpt>
      <trkpt lat="48.65606" lon="-4.43607">
        <ele>3</ele>
        <time>2023-11-02T17:26:11Z</time>
      </trkpt>
      <trkpt lat="48.65623" lon="-4.43655">
        <ele>3</ele>
        <time>2023-11-02T17:26:59Z</time>
      </trkpt>
      <trkpt lat="48.65639" lon="-4.43669">
        <ele>4</ele>
        <time>2023-11-02T17:27:23Z</time>
      </trkpt>
      <trkpt lat="48.65669" lon="-4.43702">
        <ele>4</ele>
        <time>2023-11-02T17:28:13Z</time>
      </trkpt>
      <trkpt lat="48.65687" lon="-4.43694">
        <ele>4</ele>
        <time>2023-11-02T17:28:38Z</time>
      </trkpt>
      <trkpt lat="48.65705" lon="-4.43697">
        <ele>3</ele>
        <time>2023-11-02T17:29:02Z</time>
      </trkpt>
      <trkpt lat="48.65723" lon="-4.43691">
        <ele>3</ele>
        <time>2023-11-02T17:29:27Z</time>
      </trkpt>
      <trkpt lat="48.6574" lon="-4.43682">
        <ele>2</ele>
        <time>2023-11-02T17:29:51Z</time>
      </trkpt>
      <trkpt lat="48.65758" lon="-4.43678">
        <ele>2</ele>
        <time>2023-11-02T17:30:15Z</time>
      </trkpt>
      <trkpt lat="48.65776" lon="-4.43679">
        <ele>2</ele>
        <time>2023-11-02T17:30:39Z</time>
      </trkpt>
      <trkpt lat="48.65793" lon="-4.43665">
        <ele>1</ele>
        <time>2023-11-02T17:31:05Z</time>
      </trkpt>
      <trkpt lat="48.65828" lon="-4.43673">
        <ele>1</ele>
        <time>2023-11-02T17:31:52Z</time>
      </trkpt>
      <trkpt lat="48.65816" lon="-4.43694">
        <ele>1</ele>
        <time>2023-11-02T17:32:17Z</time>
      </trkpt>
      <trkpt lat="48.65835" lon="-4.43697">
        <ele>1</ele>
        <time>2023-11-02T17:32:42Z</time>
      </trkpt>
      <trkpt lat="48.65815" lon="-4.43712">
        <ele>1</ele>
        <time>2023-11-02T17:33:12Z</time>
      </trkpt>
      <trkpt lat="48.65804" lon="-4.43691">
        <ele>1</ele>
        <time>2023-11-02T17:33:36Z</time>
      </trkpt>
      <trkpt lat="48.65767" lon="-4.43678">
        <ele>2</ele>
        <time>2023-11-02T17:34:26Z</time>
      </trkpt>
      <trkpt lat="48.6575" lon="-4.43666">
        <ele>2</ele>
        <time>2023-11-02T17:34:51Z</time>
      </trkpt>
      <trkpt lat="48.65731" lon="-4.43659">
        <ele>3</ele>
        <time>2023-11-02T17:35:17Z</time>
      </trkpt>
      <trkpt lat="48.65716" lon="-4.43674">
        <ele>3</ele>
        <time>2023-11-02T17:35:41Z</time>
      </trkpt>
      <trkpt lat="48.65698" lon="-4.43683">
        <ele>4</ele>
        <time>2023-11-02T17:36:07Z</time>
      </trkpt>
      <trkpt lat="48.65681" lon="-4.43672">
        <ele>4</ele>
        <time>2023-11-02T17:36:31Z</time>
      </trkpt>
      <trkpt lat="48.65645" lon="-4.43675">
        <ele>4</ele>
        <time>2023-11-02T17:37:19Z</time>
      </trkpt>
      <trkpt lat="48.65629" lon="-4.43662">
        <ele>4</ele>
        <time>2023-11-02T17:37:44Z</time>
      </trkpt>
      <trkpt lat="48.65617" lon="-4.43641">
        <ele>3</ele>
        <time>2023-11-02T17:38:08Z</time>
      </trkpt>
      <trkpt lat="48.65606" lon="-4.43587">
        <ele>3</ele>
        <time>2023-11-02T17:38:58Z</time>
      </trkpt>
      <trkpt lat="48.65607" lon="-4.43559">
        <ele>3</ele>
        <time>2023-11-02T17:39:23Z</time>
      </trkpt>
      <trkpt lat="48.65613" lon="-4.43531">
        <ele>2</ele>
        <time>2023-11-02T17:39:49Z</time>
      </trkpt>
      <trkpt lat="48.65608" lon="-4.43504">
        <ele>2</ele>
        <time>2023-11-02T17:40:13Z</time>
      </trkpt>
      <trkpt lat="48.65617" lon="-4.4342">
        <ele>3</ele>
        <time>2023-11-02T17:41:28Z</time>
      </trkpt>
      <trkpt lat="48.65606" lon="-4.43337">
        <ele>3</ele>
        <time>2023-11-02T17:42:43Z</time>
      </trkpt>
      <trkpt lat="48.65609" lon="-4.43281">
        <ele>2</ele>
        <time>2023-11-02T17:43:32Z</time>
      </trkpt>
      <trkpt lat="48.65605" lon="-4.43225">
        <ele>1</ele>
        <time>2023-11-02T17:44:22Z</time>
      </trkpt>
      <trkpt lat="48.65592" lon="-4.43174">
        <ele>1</ele>
        <time>2023-11-02T17:45:10Z</time>
      </trkpt>
      <trkpt lat="48.65556" lon="-4.4311">
        <ele>1</ele>
        <time>2023-11-02T17:46:24Z</time>
      </trkpt>
      <trkpt lat="48.65527" lon="-4.43075">
        <ele>1</ele>
        <time>2023-11-02T17:47:14Z</time>
      </trkpt>
      <trkpt lat="48.65514" lon="-4.43054">
        <ele>1</ele>
        <time>2023-11-02T17:47:39Z</time>
      </trkpt>
      <trkpt lat="48.65495" lon="-4.43047">
        <ele>1</ele>
        <time>2023-11-02T17:48:05Z</time>
      </trkpt>
      <trkpt lat="48.65478" lon="-4.43036">
        <ele>1</ele>
        <time>2023-11-02T17:48:30Z</time>
      </trkpt>
      <trkpt lat="48.65459" lon="-4.43043">
        <ele>1</ele>
        <time>2023-11-02T17:48:56Z</time>
      </trkpt>
      <trkpt lat="48.65441" lon="-4.43034">
        <ele>1</ele>
        <time>2023-11-02T17:49:21Z</time>
      </trkpt>
      <trkpt lat="48.65423" lon="-4.43041">
        <ele>1</ele>
        <time>2023-11-02T17:49:46Z</time>
      </trkpt>
      <trkpt lat="48.65405" lon="-4.4304">
        <ele>1</ele>
        <time>2023-11-02T17:50:10Z</time>
      </trkpt>
      <trkpt lat="48.65389" lon="-4.43025">
        <ele>1</ele>
        <time>2023-11-02T17:50:35Z</time>
      </trkpt>
      <trkpt lat="48.65363" lon="-4.42987">
        <ele>1</ele>
        <time>2023-11-02T17:51:24Z</time>
      </trkpt>
      <trkpt lat="48.65353" lon="-4.42962">
        <time>2023-11-02T17:51:49Z</time>
      </trkpt>
      <trkpt lat="48.65341" lon="-4.4291">
        <time>2023-11-02T17:52:38Z</time>
      </trkpt>
      <trkpt lat="48.65339" lon="-4.42881">
        <time>2023-11-02T17:53:04Z</time>
      </trkpt>
      <trkpt lat="48.65344" lon="-4.42824">
        <time>2023-11-02T17:53:54Z</time>
      </trkpt>
      <trkpt lat="48.65345" lon="-4.4274">
        <time>2023-11-02T17:55:08Z</time>
      </trkpt>
      <trkpt lat="48.65353" lon="-4.42716">
        <time>2023-11-02T17:55:32Z</time>
      </trkpt>
      <trkpt lat="48.65354" lon="-4.42687">
        <time>2023-11-02T17:55:58Z</time>
      </trkpt>
      <trkpt lat="48.65386" lon="-4.42553">
        <time>2023-11-02T17:58:03Z</time>
      </trkpt>
      <trkpt lat="48.65398" lon="-4.42531">
        <time>2023-11-02T17:58:28Z</time>
      </trkpt>
      <trkpt lat="48.65407" lon="-4.42507">
        <time>2023-11-02T17:58:53Z</time>
      </trkpt>
      <trkpt lat="48.65409" lon="-4.4245">
        <time>2023-11-02T17:59:43Z</time>
      </trkpt>
      <trkpt lat="48.65402" lon="-4.42424">
        <time>2023-11-02T18:00:08Z</time>
      </trkpt>
      <trkpt lat="48.65405" lon="-4.42397">
        <time>2023-11-02T18:00:32Z</time>
      </trkpt>
      <trkpt lat="48.65413" lon="-4.42371">
        <time>2023-11-02T18:00:57Z</time>
      </trkpt>
      <trkpt lat="48.65418" lon="-4.42287">
        <time>2023-11-02T18:02:12Z</time>
      </trkpt>
      <trkpt lat="48.65423" lon="-4.42261">
        <time>2023-11-02T18:02:35Z</time>
      </trkpt>
      <trkpt lat="48.65423" lon="-4.42233">
        <time>2023-11-02T18:03:00Z</time>
      </trkpt>
      <trkpt lat="48.6543" lon="-4.42178">
        <time>2023-11-02T18:03:50Z</time>
      </trkpt>
      <trkpt lat="48.65429" lon="-4.42096">
        <ele>1</ele>
        <time>2023-11-02T18:05:02Z</time>
      </trkpt>
      <trkpt lat="48.65458" lon="-4.41934">
        <ele>2.7</ele>
        <time>2023-11-02T18:07:30Z</time>
      </trkpt>
      <trkpt lat="48.6549" lon="-4.41802">
        <ele>3.9</ele>
        <time>2023-11-02T18:09:34Z</time>
      </trkpt>
      <trkpt lat="48.65495" lon="-4.41775">
        <ele>4.1</ele>
        <time>2023-11-02T18:09:58Z</time>
      </trkpt>
      <trkpt lat="48.65495" lon="-4.41748">
        <ele>6.1</ele>
        <time>2023-11-02T18:10:22Z</time>
      </trkpt>
      <trkpt lat="48.65501" lon="-4.41721">
        <ele>4.9</ele>
        <time>2023-11-02T18:10:47Z</time>
      </trkpt>
      <trkpt lat="48.65503" lon="-4.41692">
        <ele>4.8</ele>
        <time>2023-11-02T18:11:13Z</time>
      </trkpt>
      <trkpt lat="48.655" lon="-4.41634">
        <ele>3.8</ele>
        <time>2023-11-02T18:12:04Z</time>
      </trkpt>
      <trkpt lat="48.65494" lon="-4.4155">
        <ele>1</ele>
        <time>2023-11-02T18:13:19Z</time>
      </trkpt>
      <trkpt lat="48.65488" lon="-4.41522">
        <ele>2</ele>
        <time>2023-11-02T18:13:45Z</time>
      </trkpt>
      <trkpt lat="48.65491" lon="-4.41494">
        <ele>3</ele>
        <time>2023-11-02T18:14:10Z</time>
      </trkpt>
      <trkpt lat="48.65489" lon="-4.41466">
        <ele>3</ele>
        <time>2023-11-02T18:14:35Z</time>
      </trkpt>
      <trkpt lat="48.65493" lon="-4.41354">
        <ele>3</ele>
        <time>2023-11-02T18:16:14Z</time>
      </trkpt>
      <trkpt lat="48.65497" lon="-4.41298">
        <ele>3</ele>
        <time>2023-11-02T18:17:03Z</time>
      </trkpt>
      <trkpt lat="48.65504" lon="-4.41271">
        <ele>3</ele>
        <time>2023-11-02T18:17:29Z</time>
      </trkpt>
      <trkpt lat="48.65539" lon="-4.41208">
        <ele>2</ele>
        <time>2023-11-02T18:18:41Z</time>
      </trkpt>
      <trkpt lat="48.65554" lon="-4.41156">
        <ele>1</ele>
        <time>2023-11-02T18:19:31Z</time>
      </trkpt>
      <trkpt lat="48.65558" lon="-4.41128">
        <ele>1</ele>
        <time>2023-11-02T18:19:57Z</time>
      </trkpt>
      <trkpt lat="48.65559" lon="-4.41015">
        <time>2023-11-02T18:21:36Z</time>
      </trkpt>
      <trkpt lat="48.65567" lon="-4.40901">
        <time>2023-11-02T18:23:17Z</time>
      </trkpt>
      <trkpt lat="48.6557" lon="-4.40873">
        <time>2023-11-02T18:23:42Z</time>
      </trkpt>
      <trkpt lat="48.65582" lon="-4.40853">
        <time>2023-11-02T18:24:06Z</time>
      </trkpt>
      <trkpt lat="48.65582" lon="-4.40797">
        <time>2023-11-02T18:24:55Z</time>
      </trkpt>
      <trkpt lat="48.65576" lon="-4.40712">
        <ele>1</ele>
        <time>2023-11-02T18:26:11Z</time>
      </trkpt>
      <trkpt lat="48.65581" lon="-4.40628">
        <ele>1</ele>
        <time>2023-11-02T18:27:25Z</time>
      </trkpt>
      <trkpt lat="48.65574" lon="-4.40602">
        <ele>1</ele>
        <time>2023-11-02T18:27:50Z</time>
      </trkpt>
      <trkpt lat="48.65573" lon="-4.40573">
        <ele>1</ele>
        <time>2023-11-02T18:28:16Z</time>
      </trkpt>
      <trkpt lat="48.65578" lon="-4.40517">
        <ele>1</ele>
        <time>2023-11-02T18:29:05Z</time>
      </trkpt>
      <trkpt lat="48.65586" lon="-4.40492">
        <ele>1.1</ele>
        <time>2023-11-02T18:29:30Z</time>
      </trkpt>
      <trkpt lat="48.65601" lon="-4.40474">
        <ele>1.64</ele>
        <time>2023-11-02T18:29:55Z</time>
      </trkpt>
      <trkpt lat="48.65634" lon="-4.40407">
        <time>2023-11-02T18:31:09Z</time>
      </trkpt>
      <trkpt lat="48.6566" lon="-4.40301">
        <time>2023-11-02T18:32:49Z</time>
      </trkpt>
      <trkpt lat="48.65671" lon="-4.40221">
        <time>2023-11-02T18:34:01Z</time>
      </trkpt>
      <trkpt lat="48.65684" lon="-4.40167">
        <time>2023-11-02T18:34:51Z</time>
      </trkpt>
      <trkpt lat="48.65688" lon="-4.40084">
        <time>2023-11-02T18:36:05Z</time>
      </trkpt>
      <trkpt lat="48.65697" lon="-4.4003">
        <time>2023-11-02T18:36:54Z</time>
      </trkpt>
      <trkpt lat="48.65697" lon="-4.40002">
        <time>2023-11-02T18:37:19Z</time>
      </trkpt>
      <trkpt lat="48.65714" lon="-4.39892">
        <time>2023-11-02T18:38:58Z</time>
      </trkpt>
      <trkpt lat="48.65749" lon="-4.39729">
        <time>2023-11-02T18:41:29Z</time>
      </trkpt>
      <trkpt lat="48.65759" lon="-4.39706">
        <time>2023-11-02T18:41:53Z</time>
      </trkpt>
      <trkpt lat="48.65764" lon="-4.39679">
        <time>2023-11-02T18:42:18Z</time>
      </trkpt>
      <trkpt lat="48.65777" lon="-4.3966">
        <time>2023-11-02T18:42:42Z</time>
      </trkpt>
      <trkpt lat="48.65823" lon="-4.39609">
        <time>2023-11-02T18:43:58Z</time>
      </trkpt>
      <trkpt lat="48.65831" lon="-4.39583">
        <time>2023-11-02T18:44:24Z</time>
      </trkpt>
      <trkpt lat="48.65832" lon="-4.39498">
        <ele>2</ele>
        <time>2023-11-02T18:45:39Z</time>
      </trkpt>
      <trkpt lat="48.65841" lon="-4.39444">
        <time>2023-11-02T18:46:28Z</time>
      </trkpt>
      <trkpt lat="48.65849" lon="-4.39418">
        <time>2023-11-02T18:46:53Z</time>
      </trkpt>
      <trkpt lat="48.65877" lon="-4.39344">
        <time>2023-11-02T18:48:08Z</time>
      </trkpt>
      <trkpt lat="48.65908" lon="-4.39274">
        <time>2023-11-02T18:49:22Z</time>
      </trkpt>
      <trkpt lat="48.65946" lon="-4.39212">
        <time>2023-11-02T18:50:37Z</time>
      </trkpt>
      <trkpt lat="48.65957" lon="-4.39186">
        <ele>1</ele>
        <time>2023-11-02T18:51:04Z</time>
      </trkpt>
      <trkpt lat="48.65935" lon="-4.39141">
        <ele>1.6</ele>
        <time>2023-11-02T18:51:54Z</time>
      </trkpt>
      <trkpt lat="48.65925" lon="-4.39087">
        <ele>1.7</ele>
        <time>2023-11-02T18:52:43Z</time>
      </trkpt>
      <trkpt lat="48.65948" lon="-4.39011">
        <ele>1</ele>
        <time>2023-11-02T18:53:57Z</time>
      </trkpt>
      <trkpt lat="48.65952" lon="-4.38979">
        <ele>2</ele>
        <time>2023-11-02T18:54:25Z</time>
      </trkpt>
      <trkpt lat="48.65963" lon="-4.38953">
        <ele>2</ele>
        <time>2023-11-02T18:54:53Z</time>
      </trkpt>
      <trkpt lat="48.6598" lon="-4.38944">
        <ele>1</ele>
        <time>2023-11-02T18:55:17Z</time>
      </trkpt>
      <trkpt lat="48.65994" lon="-4.38926">
        <ele>4.8</ele>
        <time>2023-11-02T18:55:41Z</time>
      </trkpt>
      <trkpt lat="48.66011" lon="-4.38913">
        <ele>4.6</ele>
        <time>2023-11-02T18:56:07Z</time>
      </trkpt>
      <trkpt lat="48.66089" lon="-4.38833">
        <ele>4.5</ele>
        <time>2023-11-02T18:58:12Z</time>
      </trkpt>
      <trkpt lat="48.66074" lon="-4.38818">
        <ele>6.8</ele>
        <time>2023-11-02T18:58:36Z</time>
      </trkpt>
      <trkpt lat="48.66062" lon="-4.38796">
        <ele>7.3</ele>
        <time>2023-11-02T18:59:01Z</time>
      </trkpt>
      <trkpt lat="48.6607" lon="-4.3877">
        <ele>5.3</ele>
        <time>2023-11-02T18:59:27Z</time>
      </trkpt>
      <trkpt lat="48.66082" lon="-4.38747">
        <ele>2.9</ele>
        <time>2023-11-02T18:59:53Z</time>
      </trkpt>
      <trkpt lat="48.66112" lon="-4.38676">
        <ele>1</ele>
        <time>2023-11-02T19:01:07Z</time>
      </trkpt>
      <trkpt lat="48.66128" lon="-4.38623">
        <time>2023-11-02T19:01:58Z</time>
      </trkpt>
      <trkpt lat="48.66146" lon="-4.38574">
        <time>2023-11-02T19:02:48Z</time>
      </trkpt>
      <trkpt lat="48.6616" lon="-4.38555">
        <time>2023-11-02T19:03:13Z</time>
      </trkpt>
      <trkpt lat="48.6617" lon="-4.38531">
        <time>2023-11-02T19:03:38Z</time>
      </trkpt>
      <trkpt lat="48.66177" lon="-4.38506">
        <time>2023-11-02T19:04:02Z</time>
      </trkpt>
      <trkpt lat="48.66204" lon="-4.38467">
        <time>2023-11-02T19:04:51Z</time>
      </trkpt>
      <trkpt lat="48.66225" lon="-4.3842">
        <time>2023-11-02T19:05:41Z</time>
      </trkpt>
      <trkpt lat="48.66241" lon="-4.38367">
        <time>2023-11-02T19:06:33Z</time>
      </trkpt>
      <trkpt lat="48.66251" lon="-4.38311">
        <time>2023-11-02T19:07:24Z</time>
      </trkpt>
      <trkpt lat="48.66268" lon="-4.38262">
        <time>2023-11-02T19:08:13Z</time>
      </trkpt>
      <trkpt lat="48.6627" lon="-4.38206">
        <time>2023-11-02T19:09:02Z</time>
      </trkpt>
      <trkpt lat="48.66266" lon="-4.38179">
        <ele>2</ele>
        <time>2023-11-02T19:09:27Z</time>
      </trkpt>
      <trkpt lat="48.66274" lon="-4.38125">
        <ele>1</ele>
        <time>2023-11-02T19:10:15Z</time>
      </trkpt>
      <trkpt lat="48.66284" lon="-4.38102">
        <ele>1</ele>
        <time>2023-11-02T19:10:40Z</time>
      </trkpt>
      <trkpt lat="48.66321" lon="-4.38084">
        <ele>1.5</ele>
        <time>2023-11-02T19:11:31Z</time>
      </trkpt>
      <trkpt lat="48.66335" lon="-4.38063">
        <ele>1</ele>
        <time>2023-11-02T19:11:58Z</time>
      </trkpt>
      <trkpt lat="48.66347" lon="-4.38041">
        <ele>1</ele>
        <time>2023-11-02T19:12:23Z</time>
      </trkpt>
      <trkpt lat="48.66353" lon="-4.38014">
        <ele>1</ele>
        <time>2023-11-02T19:12:48Z</time>
      </trkpt>
      <trkpt lat="48.66374" lon="-4.37967">
        <ele>1</ele>
        <time>2023-11-02T19:13:38Z</time>
      </trkpt>
      <trkpt lat="48.66388" lon="-4.37949">
        <time>2023-11-02T19:14:03Z</time>
      </trkpt>
      <trkpt lat="48.66399" lon="-4.37927">
        <time>2023-11-02T19:14:27Z</time>
      </trkpt>
      <trkpt lat="48.66431" lon="-4.37898">
        <time>2023-11-02T19:15:17Z</time>
      </trkpt>
      <trkpt lat="48.66443" lon="-4.37875">
        <time>2023-11-02T19:15:42Z</time>
      </trkpt>
      <trkpt lat="48.66452" lon="-4.37849">
        <time>2023-11-02T19:16:08Z</time>
      </trkpt>
      <trkpt lat="48.66465" lon="-4.37829">
        <time>2023-11-02T19:16:33Z</time>
      </trkpt>
      <trkpt lat="48.6649" lon="-4.37781">
        <time>2023-11-02T19:17:27Z</time>
      </trkpt>
      <trkpt lat="48.66504" lon="-4.37761">
        <time>2023-11-02T19:17:53Z</time>
      </trkpt>
      <trkpt lat="48.66534" lon="-4.37727">
        <time>2023-11-02T19:18:43Z</time>
      </trkpt>
      <trkpt lat="48.66553" lon="-4.3772">
        <time>2023-11-02T19:19:09Z</time>
      </trkpt>
      <trkpt lat="48.66567" lon="-4.37701">
        <ele>1</ele>
        <time>2023-11-02T19:19:34Z</time>
      </trkpt>
      <trkpt lat="48.66623" lon="-4.37692">
        <ele>1</ele>
        <time>2023-11-02T19:20:49Z</time>
      </trkpt>
      <trkpt lat="48.66616" lon="-4.37666">
        <ele>1</ele>
        <time>2023-11-02T19:21:14Z</time>
      </trkpt>
      <trkpt lat="48.66635" lon="-4.37587">
        <ele>2</ele>
        <time>2023-11-02T19:22:28Z</time>
      </trkpt>
      <trkpt lat="48.6663" lon="-4.37559">
        <ele>3</ele>
        <time>2023-11-02T19:22:53Z</time>
      </trkpt>
      <trkpt lat="48.66641" lon="-4.37539">
        <ele>3</ele>
        <time>2023-11-02T19:23:16Z</time>
      </trkpt>
      <trkpt lat="48.66659" lon="-4.37535">
        <ele>3</ele>
        <time>2023-11-02T19:23:41Z</time>
      </trkpt>
      <trkpt lat="48.66676" lon="-4.37524">
        <ele>3</ele>
        <time>2023-11-02T19:24:05Z</time>
      </trkpt>
      <trkpt lat="48.66776" lon="-4.37397">
        <ele>4</ele>
        <time>2023-11-02T19:26:59Z</time>
      </trkpt>
      <trkpt lat="48.66793" lon="-4.37386">
        <ele>4</ele>
        <time>2023-11-02T19:27:24Z</time>
      </trkpt>
      <trkpt lat="48.66809" lon="-4.37397">
        <ele>3</ele>
        <time>2023-11-02T19:27:48Z</time>
      </trkpt>
      <trkpt lat="48.66827" lon="-4.37395">
        <ele>3</ele>
        <time>2023-11-02T19:28:12Z</time>
      </trkpt>
      <trkpt lat="48.66845" lon="-4.37388">
        <ele>3</ele>
        <time>2023-11-02T19:28:36Z</time>
      </trkpt>
      <trkpt lat="48.66856" lon="-4.37365">
        <ele>3</ele>
        <time>2023-11-02T19:29:01Z</time>
      </trkpt>
      <trkpt lat="48.66884" lon="-4.37328">
        <ele>3</ele>
        <time>2023-11-02T19:29:51Z</time>
      </trkpt>
      <trkpt lat="48.66902" lon="-4.37321">
        <ele>2</ele>
        <time>2023-11-02T19:30:16Z</time>
      </trkpt>
      <trkpt lat="48.66915" lon="-4.37268">
        <ele>2</ele>
        <time>2023-11-02T19:31:06Z</time>
      </trkpt>
      <trkpt lat="48.66927" lon="-4.37247">
        <ele>2</ele>
        <time>2023-11-02T19:31:30Z</time>
      </trkpt>
      <trkpt lat="48.66917" lon="-4.37193">
        <ele>2</ele>
        <time>2023-11-02T19:32:20Z</time>
      </trkpt>
      <trkpt lat="48.6692" lon="-4.37137">
        <ele>2</ele>
        <time>2023-11-02T19:33:09Z</time>
      </trkpt>
      <trkpt lat="48.66935" lon="-4.37119">
        <ele>1</ele>
        <time>2023-11-02T19:33:35Z</time>
      </trkpt>
      <trkpt lat="48.66946" lon="-4.37066">
        <ele>1</ele>
        <time>2023-11-02T19:34:24Z</time>
      </trkpt>
      <trkpt lat="48.66942" lon="-4.37038">
        <ele>1.4</ele>
        <time>2023-11-02T19:34:49Z</time>
      </trkpt>
      <trkpt lat="48.66947" lon="-4.36955">
        <time>2023-11-02T19:36:02Z</time>
      </trkpt>
      <trkpt lat="48.6695" lon="-4.3687">
        <ele>1</ele>
        <time>2023-11-02T19:37:17Z</time>
      </trkpt>
      <trkpt lat="48.66949" lon="-4.36841">
        <time>2023-11-02T19:37:43Z</time>
      </trkpt>
      <trkpt lat="48.66952" lon="-4.36813">
        <time>2023-11-02T19:38:08Z</time>
      </trkpt>
      <trkpt lat="48.66951" lon="-4.36727">
        <time>2023-11-02T19:39:24Z</time>
      </trkpt>
      <trkpt lat="48.66961" lon="-4.36702">
        <time>2023-11-02T19:39:49Z</time>
      </trkpt>
      <trkpt lat="48.66973" lon="-4.36681">
        <time>2023-11-02T19:40:14Z</time>
      </trkpt>
      <trkpt lat="48.66992" lon="-4.36633">
        <time>2023-11-02T19:41:03Z</time>
      </trkpt>
      <trkpt lat="48.67036" lon="-4.3654">
        <time>2023-11-02T19:42:44Z</time>
      </trkpt>
      <trkpt lat="48.67076" lon="-4.36482">
        <time>2023-11-02T19:43:58Z</time>
      </trkpt>
      <trkpt lat="48.67082" lon="-4.36456">
        <time>2023-11-02T19:44:22Z</time>
      </trkpt>
      <trkpt lat="48.67103" lon="-4.36406">
        <time>2023-11-02T19:45:14Z</time>
      </trkpt>
      <trkpt lat="48.67118" lon="-4.36356">
        <time>2023-11-02T19:46:03Z</time>
      </trkpt>
      <trkpt lat="48.6712" lon="-4.36326">
        <time>2023-11-02T19:46:29Z</time>
      </trkpt>
      <trkpt lat="48.67133" lon="-4.36273">
        <ele>1</ele>
        <time>2023-11-02T19:47:19Z</time>
      </trkpt>
      <trkpt lat="48.67138" lon="-4.36218">
        <ele>1</ele>
        <time>2023-11-02T19:48:08Z</time>
      </trkpt>
      <trkpt lat="48.67153" lon="-4.36135">
        <ele>1</ele>
        <time>2023-11-02T19:49:24Z</time>
      </trkpt>
      <trkpt lat="48.67181" lon="-4.36029">
        <ele>1</ele>
        <time>2023-11-02T19:51:05Z</time>
      </trkpt>
      <trkpt lat="48.67202" lon="-4.35982">
        <ele>1</ele>
        <time>2023-11-02T19:51:55Z</time>
      </trkpt>
      <trkpt lat="48.6722" lon="-4.35932">
        <ele>1</ele>
        <time>2023-11-02T19:52:45Z</time>
      </trkpt>
      <trkpt lat="48.67251" lon="-4.35864">
        <ele>1</ele>
        <time>2023-11-02T19:53:58Z</time>
      </trkpt>
      <trkpt lat="48.67276" lon="-4.35822">
        <ele>1</ele>
        <time>2023-11-02T19:54:47Z</time>
      </trkpt>
      <trkpt lat="48.67293" lon="-4.35812">
        <ele>1</ele>
        <time>2023-11-02T19:55:12Z</time>
      </trkpt>
      <trkpt lat="48.67308" lon="-4.35797">
        <ele>1</ele>
        <time>2023-11-02T19:55:36Z</time>
      </trkpt>
      <trkpt lat="48.67321" lon="-4.35777">
        <ele>3.4</ele>
        <time>2023-11-02T19:56:01Z</time>
      </trkpt>
      <trkpt lat="48.67332" lon="-4.35754">
        <ele>2.2</ele>
        <time>2023-11-02T19:56:26Z</time>
      </trkpt>
      <trkpt lat="48.67346" lon="-4.35734">
        <ele>2.1</ele>
        <time>2023-11-02T19:56:51Z</time>
      </trkpt>
      <trkpt lat="48.67377" lon="-4.35663">
        <ele>1</ele>
        <time>2023-11-02T19:58:06Z</time>
      </trkpt>
      <trkpt lat="48.67413" lon="-4.356">
        <ele>1.1</ele>
        <time>2023-11-02T19:59:20Z</time>
      </trkpt>
      <trkpt lat="48.67421" lon="-4.35575">
        <ele>1.3</ele>
        <time>2023-11-02T19:59:44Z</time>
      </trkpt>
      <trkpt lat="48.67434" lon="-4.35555">
        <ele>1</ele>
        <time>2023-11-02T20:00:09Z</time>
      </trkpt>
      <trkpt lat="48.67445" lon="-4.35532">
        <ele>1</ele>
        <time>2023-11-02T20:00:34Z</time>
      </trkpt>
      <trkpt lat="48.67475" lon="-4.35498">
        <ele>1</ele>
        <time>2023-11-02T20:01:24Z</time>
      </trkpt>
      <trkpt lat="48.67487" lon="-4.35475">
        <ele>1</ele>
        <time>2023-11-02T20:01:50Z</time>
      </trkpt>
      <trkpt lat="48.67495" lon="-4.3545">
        <ele>4</ele>
        <time>2023-11-02T20:02:14Z</time>
      </trkpt>
      <trkpt lat="48.67536" lon="-4.35355">
        <ele>5.3</ele>
        <time>2023-11-02T20:03:54Z</time>
      </trkpt>
      <trkpt lat="48.6758" lon="-4.35229">
        <ele>4.4</ele>
        <time>2023-11-02T20:06:00Z</time>
      </trkpt>
      <trkpt lat="48.67614" lon="-4.35162">
        <ele>1</ele>
        <time>2023-11-02T20:07:14Z</time>
      </trkpt>
      <trkpt lat="48.67632" lon="-4.35113">
        <ele>1</ele>
        <time>2023-11-02T20:08:04Z</time>
      </trkpt>
      <trkpt lat="48.67668" lon="-4.34983">
        <ele>3.9</ele>
        <time>2023-11-02T20:10:08Z</time>
      </trkpt>
      <trkpt lat="48.67671" lon="-4.34955">
        <ele>1</ele>
        <time>2023-11-02T20:10:33Z</time>
      </trkpt>
      <trkpt lat="48.67668" lon="-4.34928">
        <ele>2</ele>
        <time>2023-11-02T20:10:57Z</time>
      </trkpt>
      <trkpt lat="48.67668" lon="-4.34899">
        <ele>2</ele>
        <time>2023-11-02T20:11:23Z</time>
      </trkpt>
      <trkpt lat="48.67674" lon="-4.34814">
        <ele>2</ele>
        <time>2023-11-02T20:12:38Z</time>
      </trkpt>
      <trkpt lat="48.67687" lon="-4.34762">
        <ele>2</ele>
        <time>2023-11-02T20:13:27Z</time>
      </trkpt>
      <trkpt lat="48.67705" lon="-4.34712">
        <ele>2</ele>
        <time>2023-11-02T20:14:17Z</time>
      </trkpt>
      <trkpt lat="48.67716" lon="-4.3469">
        <ele>1</ele>
        <time>2023-11-02T20:14:41Z</time>
      </trkpt>
      <trkpt lat="48.67721" lon="-4.34664">
        <ele>1</ele>
        <time>2023-11-02T20:15:05Z</time>
      </trkpt>
      <trkpt lat="48.67723" lon="-4.34635">
        <ele>2</ele>
        <time>2023-11-02T20:15:31Z</time>
      </trkpt>
      <trkpt lat="48.6772" lon="-4.34608">
        <ele>2</ele>
        <time>2023-11-02T20:15:55Z</time>
      </trkpt>
      <trkpt lat="48.67722" lon="-4.3458">
        <ele>2</ele>
        <time>2023-11-02T20:16:20Z</time>
      </trkpt>
      <trkpt lat="48.67731" lon="-4.34526">
        <ele>2</ele>
        <time>2023-11-02T20:17:09Z</time>
      </trkpt>
      <trkpt lat="48.67725" lon="-4.34499">
        <ele>2</ele>
        <time>2023-11-02T20:17:34Z</time>
      </trkpt>
      <trkpt lat="48.67722" lon="-4.34471">
        <ele>2</ele>
        <time>2023-11-02T20:17:59Z</time>
      </trkpt>
      <trkpt lat="48.6772" lon="-4.34386">
        <ele>2</ele>
        <time>2023-11-02T20:19:14Z</time>
      </trkpt>
      <trkpt lat="48.677" lon="-4.3425">
        <ele>2</ele>
        <time>2023-11-02T20:21:17Z</time>
      </trkpt>
      <trkpt lat="48.6771" lon="-4.34195">
        <ele>2</ele>
        <time>2023-11-02T20:22:07Z</time>
      </trkpt>
      <trkpt lat="48.6772" lon="-4.34172">
        <ele>2</ele>
        <time>2023-11-02T20:22:31Z</time>
      </trkpt>
      <trkpt lat="48.67746" lon="-4.34131">
        <ele>2.3</ele>
        <time>2023-11-02T20:23:21Z</time>
      </trkpt>
      <trkpt lat="48.67741" lon="-4.34075">
        <ele>1</ele>
        <time>2023-11-02T20:24:11Z</time>
      </trkpt>
      <trkpt lat="48.67717" lon="-4.34001">
        <ele>3</ele>
        <time>2023-11-02T20:25:24Z</time>
      </trkpt>
      <trkpt lat="48.67714" lon="-4.33973">
        <ele>3</ele>
        <time>2023-11-02T20:25:49Z</time>
      </trkpt>
      <trkpt lat="48.67717" lon="-4.33945">
        <ele>3</ele>
        <time>2023-11-02T20:26:14Z</time>
      </trkpt>
      <trkpt lat="48.6771" lon="-4.33891">
        <ele>3</ele>
        <time>2023-11-02T20:27:02Z</time>
      </trkpt>
      <trkpt lat="48.67709" lon="-4.33863">
        <ele>3</ele>
        <time>2023-11-02T20:27:27Z</time>
      </trkpt>
      <trkpt lat="48.67698" lon="-4.3381">
        <ele>3</ele>
        <time>2023-11-02T20:28:16Z</time>
      </trkpt>
      <trkpt lat="48.67685" lon="-4.33787">
        <ele>3</ele>
        <time>2023-11-02T20:28:43Z</time>
      </trkpt>
      <trkpt lat="48.67668" lon="-4.33774">
        <ele>3</ele>
        <time>2023-11-02T20:29:08Z</time>
      </trkpt>
      <trkpt lat="48.6764" lon="-4.33735">
        <ele>3</ele>
        <time>2023-11-02T20:29:59Z</time>
      </trkpt>
      <trkpt lat="48.67624" lon="-4.33685">
        <ele>4</ele>
        <time>2023-11-02T20:30:48Z</time>
      </trkpt>
      <trkpt lat="48.67613" lon="-4.33661">
        <ele>4</ele>
        <time>2023-11-02T20:31:14Z</time>
      </trkpt>
      <trkpt lat="48.6761" lon="-4.33632">
        <ele>4</ele>
        <time>2023-11-02T20:31:39Z</time>
      </trkpt>
      <trkpt lat="48.67602" lon="-4.33605">
        <ele>4</ele>
        <time>2023-11-02T20:32:05Z</time>
      </trkpt>
      <trkpt lat="48.67597" lon="-4.3355">
        <ele>3</ele>
        <time>2023-11-02T20:32:54Z</time>
      </trkpt>
      <trkpt lat="48.67582" lon="-4.33468">
        <ele>3</ele>
        <time>2023-11-02T20:34:09Z</time>
      </trkpt>
      <trkpt lat="48.67581" lon="-4.3344">
        <ele>4</ele>
        <time>2023-11-02T20:34:34Z</time>
      </trkpt>
      <trkpt lat="48.67607" lon="-4.33367">
        <ele>4</ele>
        <time>2023-11-02T20:35:47Z</time>
      </trkpt>
      <trkpt lat="48.6762" lon="-4.33344">
        <ele>4</ele>
        <time>2023-11-02T20:36:14Z</time>
      </trkpt>
      <trkpt lat="48.67635" lon="-4.33292">
        <ele>4</ele>
        <time>2023-11-02T20:37:04Z</time>
      </trkpt>
      <trkpt lat="48.67645" lon="-4.33237">
        <ele>5</ele>
        <time>2023-11-02T20:37:54Z</time>
      </trkpt>
      <trkpt lat="48.67633" lon="-4.33214">
        <ele>6</ele>
        <time>2023-11-02T20:38:20Z</time>
      </trkpt>
      <trkpt lat="48.67619" lon="-4.33133">
        <ele>6</ele>
        <time>2023-11-02T20:39:34Z</time>
      </trkpt>
      <trkpt lat="48.6762" lon="-4.33105">
        <ele>6</ele>
        <time>2023-11-02T20:39:58Z</time>
      </trkpt>
      <trkpt lat="48.67624" lon="-4.33079">
        <ele>6</ele>
        <time>2023-11-02T20:40:22Z</time>
      </trkpt>
      <trkpt lat="48.67605" lon="-4.33076">
        <ele>5</ele>
        <time>2023-11-02T20:40:47Z</time>
      </trkpt>
      <trkpt lat="48.67588" lon="-4.33087">
        <ele>4</ele>
        <time>2023-11-02T20:41:12Z</time>
      </trkpt>
      <trkpt lat="48.67551" lon="-4.33079">
        <ele>4</ele>
        <time>2023-11-02T20:42:02Z</time>
      </trkpt>
      <trkpt lat="48.67536" lon="-4.33062">
        <ele>4</ele>
        <time>2023-11-02T20:42:27Z</time>
      </trkpt>
      <trkpt lat="48.67513" lon="-4.33016">
        <ele>4</ele>
        <time>2023-11-02T20:43:18Z</time>
      </trkpt>
      <trkpt lat="48.67485" lon="-4.32942">
        <ele>4</ele>
        <time>2023-11-02T20:44:33Z</time>
      </trkpt>
      <trkpt lat="48.67472" lon="-4.32923">
        <ele>4</ele>
        <time>2023-11-02T20:44:57Z</time>
      </trkpt>
      <trkpt lat="48.67445" lon="-4.32961">
        <ele>6</ele>
        <time>2023-11-02T20:45:46Z</time>
      </trkpt>
      <trkpt lat="48.67423" lon="-4.33005">
        <ele>7</ele>
        <time>2023-11-02T20:46:35Z</time>
      </trkpt>
      <trkpt lat="48.67402" lon="-4.33006">
        <ele>7</ele>
        <time>2023-11-02T20:47:03Z</time>
      </trkpt>
      <trkpt lat="48.67387" lon="-4.33021">
        <ele>6</ele>
        <time>2023-11-02T20:47:27Z</time>
      </trkpt>
      <trkpt lat="48.67382" lon="-4.33078">
        <ele>6</ele>
        <time>2023-11-02T20:48:18Z</time>
      </trkpt>
      <trkpt lat="48.67346" lon="-4.33088">
        <ele>6</ele>
        <time>2023-11-02T20:49:06Z</time>
      </trkpt>
      <trkpt lat="48.67329" lon="-4.33096">
        <ele>6</ele>
        <time>2023-11-02T20:49:30Z</time>
      </trkpt>
      <trkpt lat="48.67313" lon="-4.3311">
        <ele>7</ele>
        <time>2023-11-02T20:49:55Z</time>
      </trkpt>
      <trkpt lat="48.67294" lon="-4.33102">
        <ele>7</ele>
        <time>2023-11-02T20:50:21Z</time>
      </trkpt>
      <trkpt lat="48.67294" lon="-4.33073">
        <ele>6</ele>
        <time>2023-11-02T20:50:47Z</time>
      </trkpt>
      <trkpt lat="48.67289" lon="-4.33018">
        <ele>6</ele>
        <time>2023-11-02T20:51:36Z</time>
      </trkpt>
      <trkpt lat="48.67292" lon="-4.32934">
        <ele>5</ele>
        <time>2023-11-02T20:52:50Z</time>
      </trkpt>
      <trkpt lat="48.67276" lon="-4.32919">
        <ele>4</ele>
        <time>2023-11-02T20:53:15Z</time>
      </trkpt>
      <trkpt lat="48.67257" lon="-4.32914">
        <ele>4</ele>
        <time>2023-11-02T20:53:41Z</time>
      </trkpt>
      <trkpt lat="48.67226" lon="-4.32883">
        <ele>5</ele>
        <time>2023-11-02T20:54:30Z</time>
      </trkpt>
      <trkpt lat="48.67215" lon="-4.32861">
        <ele>5</ele>
        <time>2023-11-02T20:54:55Z</time>
      </trkpt>
      <trkpt lat="48.67197" lon="-4.32852">
        <ele>5</ele>
        <time>2023-11-02T20:55:20Z</time>
      </trkpt>
    </trkseg>
  </trk>
</gpx>